Time;durP1;ratioP1;P1;durP2;ratioP2;P2;SDS_P1;SDS_P2;PMS_P1;PMS_P2;Temp;Humidity;BMP_temperature;BMP_pressure;BME280_temperature;BME280_humidity;BME280_pressure;Samples;Min_cycle;Max_cycle;Signal;HPM_P1;HPM_P2
2022/09/15 00:02:15;;;;;;;25.35;14.27;;;14.90;99.90;;;;;;5013650;28;20135;-66
2022/09/15 00:04:41;;;;;;;18.42;13.57;;;14.60;99.90;;;;;;5013935;28;20026;-66
2022/09/15 00:07:06;;;;;;;23.23;14.63;;;14.70;99.90;;;;;;5014182;28;20403;-67
2022/09/15 00:09:32;;;;;;;21.30;13.98;;;14.80;99.90;;;;;;5014099;28;20479;-67
2022/09/15 00:11:58;;;;;;;21.30;14.25;;;15.10;99.90;;;;;;5013748;28;20026;-67
2022/09/15 00:14:24;;;;;;;18.67;13.57;;;14.90;99.90;;;;;;5013837;28;20038;-67
2022/09/15 00:16:50;;;;;;;18.98;12.73;;;14.90;99.90;;;;;;5013515;28;20030;-67
2022/09/15 00:19:15;;;;;;;18.73;13.40;;;14.80;99.90;;;;;;5013928;28;20022;-67
2022/09/15 00:21:41;;;;;;;19.17;13.00;;;14.70;99.90;;;;;;5013769;28;20018;-67
2022/09/15 00:24:08;;;;;;;23.27;12.93;;;14.60;99.90;;;;;;5013705;28;20260;-67
2022/09/15 00:26:34;;;;;;;21.92;13.10;;;14.50;99.90;;;;;;5013776;28;20040;-67
2022/09/15 00:29:01;;;;;;;27.77;13.23;;;14.40;99.90;;;;;;5013320;28;20025;-67
2022/09/15 00:31:28;;;;;;;22.20;14.50;;;14.50;99.90;;;;;;5012100;28;20103;-67
2022/09/15 00:33:56;;;;;;;21.98;13.23;;;14.50;99.90;;;;;;5013418;28;20460;-67
2022/09/15 00:36:23;;;;;;;25.98;14.00;;;14.50;99.90;;;;;;5013868;28;20397;-67
2022/09/15 00:38:49;;;;;;;17.83;13.55;;;14.70;99.90;;;;;;5012993;28;20026;-66
2022/09/15 00:41:18;;;;;;;21.60;13.55;;;14.50;99.90;;;;;;5013658;28;20072;-67
2022/09/15 00:43:54;;;;;;;18.15;14.02;;;14.50;99.90;;;;;;5013300;28;20026;-67
2022/09/15 00:46:33;;;;;;;19.67;13.65;;;14.60;99.90;;;;;;5013194;28;20049;-67
2022/09/15 00:49:08;;;;;;;24.25;13.45;;;14.70;99.90;;;;;;5013364;28;20069;-67
2022/09/15 00:51:45;;;;;;;22.85;13.23;;;14.70;99.90;;;;;;5013300;28;20073;-66
2022/09/15 00:54:41;;;;;;;19.10;12.43;;;14.60;99.90;;;;;;5012959;28;20038;-68
2022/09/15 00:57:14;;;;;;;29.50;14.15;;;14.60;99.90;;;;;;4986016;28;20046;-68
2022/09/15 00:59:41;;;;;;;25.95;13.23;;;14.80;99.90;;;;;;4999655;28;20056;-67
2022/09/15 01:02:28;;;;;;;17.95;12.00;;;14.80;99.90;;;;;;5012703;28;20079;-67
2022/09/15 01:04:56;;;;;;;21.67;12.02;;;14.60;99.90;;;;;;5013171;28;20026;-67
2022/09/15 01:07:31;;;;;;;17.75;11.75;;;14.40;99.90;;;;;;5013348;28;20026;-67
2022/09/15 01:10:01;;;;;;;21.75;12.10;;;14.40;99.90;;;;;;5012974;28;20076;-67
2022/09/15 01:12:27;;;;;;;22.80;13.15;;;14.30;99.90;;;;;;5013365;28;20080;-67
2022/09/15 01:14:53;;;;;;;21.30;13.02;;;14.40;99.90;;;;;;5012251;28;20046;-67
2022/09/15 01:17:33;;;;;;;20.15;12.18;;;14.30;99.90;;;;;;5013207;28;20026;-67
2022/09/15 01:20:23;;;;;;;17.60;11.95;;;14.30;99.90;;;;;;5013132;28;20398;-67
2022/09/15 01:23:34;;;;;;;21.40;12.25;;;14.20;99.90;;;;;;5013023;28;20026;-67
2022/09/15 01:26:29;;;;;;;24.88;13.00;;;14.20;99.90;;;;;;4993568;28;20029;-67
2022/09/15 01:29:23;;;;;;;24.50;14.15;;;14.10;99.90;;;;;;5012812;28;20088;-67
2022/09/15 01:34:59;;;;;;;23.60;14.80;;;14.10;99.90;;;;;;5011397;28;20086;-67
2022/09/15 01:37:34;;;;;;;24.17;15.60;;;14.50;99.90;;;;;;5012743;28;20030;-68
2022/09/15 01:40:01;;;;;;;24.90;15.57;;;14.70;99.90;;;;;;5011708;28;20041;-67
2022/09/15 01:42:30;;;;;;;23.45;15.93;;;14.70;99.90;;;;;;5012801;28;20018;-67
2022/09/15 01:45:18;;;;;;;33.05;16.30;;;14.90;99.90;;;;;;5012621;28;20045;-67
2022/09/15 01:47:46;;;;;;;33.50;16.77;;;15.00;99.90;;;;;;5012941;28;20022;-67
2022/09/15 01:50:21;;;;;;;29.45;16.80;;;15.10;99.90;;;;;;5013672;28;20018;-67
2022/09/15 01:52:50;;;;;;;27.80;17.42;;;15.00;99.90;;;;;;5016544;28;20038;-68
2022/09/15 01:55:36;;;;;;;27.48;16.75;;;14.90;99.90;;;;;;5016540;28;20041;-67
2022/09/15 01:58:03;;;;;;;27.25;16.00;;;14.70;99.90;;;;;;5016288;28;20034;-67
2022/09/15 02:00:32;;;;;;;26.08;16.58;;;14.90;99.90;;;;;;5015030;28;20497;-67
2022/09/15 02:03:03;;;;;;;36.83;17.75;;;15.00;99.90;;;;;;5016351;28;20074;-67
2022/09/15 02:05:38;;;;;;;27.43;17.47;;;15.20;99.90;;;;;;5016330;28;20042;-67
2022/09/15 02:08:37;;;;;;;27.63;18.33;;;15.30;99.90;;;;;;5016220;28;20077;-67
2022/09/15 02:11:15;;;;;;;33.40;17.35;;;15.20;99.90;;;;;;5015969;28;20048;-67
2022/09/15 02:13:47;;;;;;;28.73;17.73;;;15.20;99.90;;;;;;5015904;28;20125;-67
2022/09/15 02:16:24;;;;;;;32.95;17.25;;;15.30;99.90;;;;;;5016068;28;20062;-69
2022/09/15 02:19:01;;;;;;;30.42;17.33;;;15.00;99.90;;;;;;5016442;28;20026;-67
2022/09/15 02:21:39;;;;;;;25.50;16.02;;;14.90;99.90;;;;;;5015922;28;20037;-67
2022/09/15 02:24:11;;;;;;;27.17;16.05;;;14.80;99.90;;;;;;5003577;28;20026;-67
2022/09/15 02:26:40;;;;;;;26.40;17.63;;;14.70;99.90;;;;;;5015989;28;20065;-67
2022/09/15 02:29:09;;;;;;;22.98;16.50;;;14.80;99.90;;;;;;5015578;28;20044;-67
2022/09/15 02:31:38;;;;;;;26.48;16.27;;;14.80;99.90;;;;;;5015754;28;20030;-67
2022/09/15 02:34:12;;;;;;;28.42;15.68;;;14.80;99.90;;;;;;5015679;28;20048;-67
2022/09/15 02:36:40;;;;;;;28.67;16.58;;;14.60;99.90;;;;;;5015824;28;20084;-68
2022/09/15 02:39:12;;;;;;;27.13;16.27;;;14.50;99.90;;;;;;5015673;28;20030;-67
2022/09/15 02:41:39;;;;;;;32.38;17.23;;;14.50;99.90;;;;;;5015406;28;20049;-67
2022/09/15 02:44:06;;;;;;;31.20;16.90;;;14.60;99.90;;;;;;5015521;28;20034;-67
2022/09/15 02:46:32;;;;;;;27.92;16.85;;;14.80;99.90;;;;;;5015664;28;20068;-67
2022/09/15 02:48:58;;;;;;;21.52;15.85;;;14.60;99.90;;;;;;5013792;28;20383;-67
2022/09/15 02:51:24;;;;;;;34.22;16.90;;;14.60;99.90;;;;;;5015429;28;20033;-67
2022/09/15 02:53:50;;;;;;;36.72;16.20;;;14.60;99.90;;;;;;5015289;28;20467;-67
2022/09/15 02:56:16;;;;;;;34.42;17.40;;;14.60;99.90;;;;;;5014949;28;20030;-67
2022/09/15 02:58:43;;;;;;;29.80;16.48;;;14.60;99.90;;;;;;5015417;28;20018;-69
2022/09/15 03:01:13;;;;;;;26.77;15.93;;;14.70;99.90;;;;;;5015399;28;20033;-68
2022/09/15 03:03:40;;;;;;;34.20;16.65;;;14.60;99.90;;;;;;5014096;28;20022;-67
2022/09/15 03:06:15;;;;;;;27.65;15.38;;;14.50;99.90;;;;;;5015201;28;20025;-68
2022/09/15 03:08:49;;;;;;;31.67;15.70;;;14.40;99.90;;;;;;5015045;28;20545;-67
2022/09/15 03:11:16;;;;;;;29.83;15.75;;;14.30;99.90;;;;;;5014927;28;20391;-67
2022/09/15 03:13:42;;;;;;;27.15;15.73;;;14.30;99.90;;;;;;5014927;28;20030;-67
2022/09/15 03:16:09;;;;;;;30.20;16.23;;;14.30;99.90;;;;;;5015015;28;20030;-67
2022/09/15 03:18:37;;;;;;;22.95;16.13;;;14.20;99.90;;;;;;5015101;28;20069;-68
2022/09/15 03:21:04;;;;;;;33.92;17.73;;;14.20;99.90;;;;;;5015018;28;20034;-67
2022/09/15 03:23:30;;;;;;;27.45;16.35;;;14.10;99.90;;;;;;5014772;28;20034;-67
2022/09/15 03:25:58;;;;;;;29.45;17.58;;;14.10;99.90;;;;;;5014560;28;20033;-67
2022/09/15 03:28:24;;;;;;;32.38;17.75;;;14.10;99.90;;;;;;5014865;28;20018;-67
2022/09/15 03:30:50;;;;;;;28.83;17.73;;;14.00;99.90;;;;;;5014624;28;20041;-68
2022/09/15 03:33:15;;;;;;;34.72;17.88;;;14.00;99.90;;;;;;5014567;28;20067;-67
2022/09/15 03:35:41;;;;;;;28.13;16.52;;;14.20;99.90;;;;;;5014764;28;20038;-67
2022/09/15 03:38:07;;;;;;;28.65;16.60;;;14.40;99.90;;;;;;5014496;28;20022;-67
2022/09/15 03:40:32;;;;;;;29.50;16.95;;;14.40;99.90;;;;;;5014563;28;20026;-67
2022/09/15 03:42:58;;;;;;;39.85;18.23;;;14.40;99.90;;;;;;5014341;28;20030;-67
2022/09/15 03:45:24;;;;;;;29.08;17.08;;;14.50;99.90;;;;;;5014485;28;20522;-67
2022/09/15 03:47:50;;;;;;;28.75;16.50;;;14.70;99.90;;;;;;5014580;28;20037;-67
2022/09/15 03:50:15;;;;;;;27.92;16.70;;;14.40;99.90;;;;;;5014409;28;20021;-67
2022/09/15 03:52:41;;;;;;;31.42;17.05;;;14.20;99.90;;;;;;5014237;28;20030;-67
2022/09/15 03:55:07;;;;;;;35.75;17.10;;;14.10;99.90;;;;;;5012604;28;20037;-67
2022/09/15 03:57:33;;;;;;;31.25;15.63;;;14.00;99.90;;;;;;5014160;28;20022;-67
2022/09/15 03:59:59;;;;;;;32.40;17.25;;;14.00;99.90;;;;;;5014267;28;20036;-67
2022/09/15 04:02:24;;;;;;;32.13;17.63;;;14.00;99.90;;;;;;5014155;28;20048;-67
2022/09/15 04:04:50;;;;;;;26.50;17.85;;;14.00;99.90;;;;;;5014124;28;20053;-68
2022/09/15 04:07:16;;;;;;;28.77;18.02;;;14.00;99.90;;;;;;5014070;28;20022;-67
2022/09/15 04:09:41;;;;;;;37.45;17.90;;;14.10;99.90;;;;;;5013703;28;20104;-67
2022/09/15 04:12:08;;;;;;;34.08;18.13;;;14.10;99.90;;;;;;5013744;28;20030;-68
2022/09/15 04:14:34;;;;;;;31.10;18.38;;;14.30;99.90;;;;;;5013476;28;20045;-67
2022/09/15 04:17:00;;;;;;;48.75;18.73;;;14.40;99.90;;;;;;5013747;28;20080;-67
2022/09/15 04:19:26;;;;;;;33.22;17.88;;;14.60;99.90;;;;;;5013963;28;20028;-67
2022/09/15 04:21:52;;;;;;;40.30;18.92;;;14.70;99.90;;;;;;5013939;28;20037;-67
2022/09/15 04:24:18;;;;;;;32.97;19.65;;;14.50;99.90;;;;;;5013370;28;20026;-67
2022/09/15 04:26:44;;;;;;;32.15;18.52;;;14.70;99.90;;;;;;5013943;28;20030;-67
2022/09/15 04:29:15;;;;;;;31.52;18.38;;;14.60;99.90;;;;;;5013155;28;20157;-67
2022/09/15 04:31:41;;;;;;;30.70;18.73;;;14.60;99.90;;;;;;5013622;28;20045;-67
2022/09/15 04:34:07;;;;;;;33.72;18.05;;;14.40;99.90;;;;;;5013568;28;20649;-67
2022/09/15 04:36:33;;;;;;;32.90;18.30;;;14.50;99.90;;;;;;5013657;28;20042;-67
2022/09/15 04:38:59;;;;;;;33.17;18.13;;;14.50;99.90;;;;;;5013425;28;20022;-68
2022/09/15 04:41:26;;;;;;;32.55;18.10;;;14.50;99.90;;;;;;4999665;28;20474;-67
2022/09/15 04:43:52;;;;;;;30.45;18.60;;;14.70;99.90;;;;;;5013409;28;20382;-67
2022/09/15 04:46:18;;;;;;;30.20;18.27;;;14.60;99.90;;;;;;5013341;28;20080;-67
2022/09/15 04:48:44;;;;;;;25.45;16.90;;;14.60;99.90;;;;;;5013436;28;20050;-67
2022/09/15 04:51:13;;;;;;;36.42;18.65;;;14.40;99.90;;;;;;5013173;28;20076;-68
2022/09/15 04:53:40;;;;;;;33.92;19.15;;;14.60;99.90;;;;;;5012891;28;20112;-67
2022/09/15 04:56:09;;;;;;;33.78;17.85;;;14.90;99.90;;;;;;5013289;28;20025;-67
2022/09/15 04:58:40;;;;;;;31.80;19.05;;;15.00;99.90;;;;;;5013365;28;20551;-67
2022/09/15 05:01:18;;;;;;;26.98;18.38;;;14.70;99.90;;;;;;5013396;28;20438;-67
2022/09/15 05:03:45;;;;;;;24.42;16.85;;;14.60;99.90;;;;;;5013236;28;20458;-67
2022/09/15 05:06:14;;;;;;;33.10;18.85;;;14.50;99.90;;;;;;5010988;28;20022;-67
2022/09/15 05:08:40;;;;;;;28.75;16.95;;;14.40;99.90;;;;;;5012614;28;20029;-67
2022/09/15 05:11:10;;;;;;;32.15;18.27;;;14.20;99.90;;;;;;5011756;28;20053;-67
2022/09/15 05:13:38;;;;;;;32.33;19.10;;;14.20;99.90;;;;;;5012837;28;20048;-67
2022/09/15 05:16:15;;;;;;;37.42;19.02;;;14.20;99.90;;;;;;5012910;28;20364;-67
2022/09/15 05:18:44;;;;;;;38.63;18.60;;;14.40;99.90;;;;;;5013074;28;20037;-67
2022/09/15 05:21:12;;;;;;;27.90;17.85;;;14.60;99.90;;;;;;5012564;28;20022;-67
2022/09/15 05:23:38;;;;;;;28.67;16.90;;;14.70;99.90;;;;;;5012787;28;20058;-67
2022/09/15 05:26:11;;;;;;;32.50;17.70;;;14.80;99.90;;;;;;5015261;28;20050;-68
2022/09/15 05:28:38;;;;;;;31.75;17.67;;;14.90;99.90;;;;;;5016998;28;20053;-67
2022/09/15 05:31:09;;;;;;;25.42;16.63;;;14.70;99.90;;;;;;5016032;28;20034;-67
2022/09/15 05:33:35;;;;;;;29.60;17.23;;;14.80;99.90;;;;;;5016585;28;20037;-67
2022/09/15 05:36:01;;;;;;;36.83;18.20;;;15.00;99.90;;;;;;5013735;28;20034;-67
2022/09/15 05:38:30;;;;;;;30.38;17.60;;;15.10;99.90;;;;;;5005543;28;20201;-67
2022/09/15 05:41:08;;;;;;;29.85;17.77;;;14.90;99.90;;;;;;5012117;28;20021;-67
2022/09/15 05:43:35;;;;;;;38.05;18.00;;;15.20;99.90;;;;;;5007417;28;20030;-67
2022/09/15 05:46:02;;;;;;;30.83;17.45;;;15.10;99.90;;;;;;4999114;28;20396;-67
2022/09/15 05:48:28;;;;;;;30.42;17.75;;;14.60;99.90;;;;;;4997606;28;20041;-67
2022/09/15 05:50:55;;;;;;;46.50;20.27;;;14.50;99.90;;;;;;5004233;28;20073;-67
2022/09/15 05:53:22;;;;;;;44.40;18.80;;;14.90;99.90;;;;;;5004512;28;20018;-67
2022/09/15 05:55:48;;;;;;;35.30;18.13;;;15.00;99.90;;;;;;5012616;28;20399;-67
2022/09/15 05:58:14;;;;;;;43.92;18.50;;;14.70;99.90;;;;;;5006881;28;20030;-67
2022/09/15 06:00:41;;;;;;;35.42;17.92;;;14.60;99.90;;;;;;5016173;28;20033;-67
2022/09/15 06:03:12;;;;;;;27.60;17.45;;;14.40;99.90;;;;;;5014614;28;20029;-67
2022/09/15 06:05:38;;;;;;;37.05;18.58;;;14.30;99.90;;;;;;5015489;28;20022;-67
2022/09/15 06:08:04;;;;;;;26.70;17.38;;;14.40;99.90;;;;;;5015007;28;20386;-67
2022/09/15 06:10:31;;;;;;;42.00;18.52;;;14.40;99.90;;;;;;5015854;28;20057;-67
2022/09/15 06:12:57;;;;;;;29.08;17.55;;;14.40;99.90;;;;;;5016167;28;20112;-67
2022/09/15 06:15:24;;;;;;;42.47;19.58;;;14.60;99.90;;;;;;5015869;28;20157;-67
2022/09/15 06:17:50;;;;;;;27.58;17.77;;;14.70;99.90;;;;;;5016424;28;20040;-68
2022/09/15 06:20:17;;;;;;;29.15;19.08;;;15.00;99.90;;;;;;5015954;28;20084;-66
2022/09/15 06:22:44;;;;;;;32.67;18.33;;;15.00;99.90;;;;;;5015909;28;20052;-67
2022/09/15 06:25:12;;;;;;;29.38;17.92;;;15.10;99.90;;;;;;5016019;28;20021;-67
2022/09/15 06:27:38;;;;;;;31.80;17.80;;;15.30;99.90;;;;;;5015752;28;20144;-67
2022/09/15 06:30:05;;;;;;;24.17;17.02;;;15.50;99.90;;;;;;5015832;28;20501;-67
2022/09/15 06:32:31;;;;;;;26.85;17.65;;;15.40;99.90;;;;;;5015472;28;20116;-67
2022/09/15 06:34:56;;;;;;;30.25;17.63;;;15.80;99.90;;;;;;5015557;28;20455;-67
2022/09/15 06:37:22;;;;;;;26.17;17.90;;;15.90;99.90;;;;;;5014160;28;20077;-67
2022/09/15 06:39:48;;;;;;;29.58;17.92;;;15.90;99.90;;;;;;5015944;28;20033;-67
2022/09/15 06:42:14;;;;;;;26.58;16.75;;;15.90;99.90;;;;;;5015759;28;20022;-67
2022/09/15 06:44:40;;;;;;;27.42;16.27;;;15.70;99.90;;;;;;5015595;28;20028;-67
2022/09/15 06:47:06;;;;;;;27.92;17.42;;;15.60;99.90;;;;;;5015651;28;20179;-67
2022/09/15 06:49:32;;;;;;;24.25;16.40;;;15.60;99.90;;;;;;5015294;28;20100;-67
2022/09/15 06:52:00;;;;;;;25.38;16.60;;;15.20;99.90;;;;;;5015477;28;20022;-67
2022/09/15 06:54:26;;;;;;;27.67;17.67;;;15.40;99.90;;;;;;5015424;28;20109;-67
2022/09/15 06:56:52;;;;;;;31.70;16.55;;;15.80;99.90;;;;;;5015313;28;20030;-67
2022/09/15 06:59:18;;;;;;;30.63;17.08;;;16.00;99.90;;;;;;5015340;28;20029;-67
2022/09/15 07:01:44;;;;;;;30.52;15.70;;;15.90;99.90;;;;;;5013733;28;20390;-67
2022/09/15 07:04:09;;;;;;;24.70;15.65;;;15.60;99.90;;;;;;5015170;28;20355;-67
2022/09/15 07:06:38;;;;;;;25.80;16.27;;;15.30;99.90;;;;;;5015206;28;20033;-67
2022/09/15 07:09:05;;;;;;;34.53;16.50;;;15.30;99.90;;;;;;5014590;28;20049;-67
2022/09/15 07:11:31;;;;;;;22.70;15.55;;;15.60;99.90;;;;;;5014638;28;20084;-67
2022/09/15 07:13:57;;;;;;;26.88;15.80;;;15.30;99.90;;;;;;5013662;28;20034;-67
2022/09/15 07:16:26;;;;;;;28.83;17.40;;;15.40;99.90;;;;;;5015283;28;20489;-67
2022/09/15 07:18:55;;;;;;;31.17;17.88;;;15.80;99.90;;;;;;5014722;28;20068;-66
2022/09/15 07:21:22;;;;;;;29.08;16.90;;;16.20;99.90;;;;;;5014868;28;20025;-67
2022/09/15 07:23:49;;;;;;;24.30;15.73;;;16.50;99.90;;;;;;5014768;28;20026;-67
2022/09/15 07:26:24;;;;;;;28.55;15.65;;;16.40;99.90;;;;;;5015183;28;20026;-67
2022/09/15 07:28:58;;;;;;;23.02;16.58;;;16.60;99.90;;;;;;5014495;28;20443;-66
2022/09/15 07:31:26;;;;;;;31.30;16.27;;;16.50;99.90;;;;;;5013460;28;20438;-67
2022/09/15 07:33:52;;;;;;;28.80;15.13;;;16.60;99.90;;;;;;5014438;28;20053;-67
2022/09/15 07:36:18;;;;;;;23.73;15.02;;;16.60;99.90;;;;;;5014792;28;20037;-67
2022/09/15 07:38:46;;;;;;;24.55;15.77;;;16.20;99.90;;;;;;5013425;28;20434;-67
2022/09/15 07:41:22;;;;;;;25.80;15.13;;;16.30;99.90;;;;;;5014475;28;20049;-68
2022/09/15 07:43:49;;;;;;;30.08;15.27;;;16.60;99.90;;;;;;5014507;28;20046;-67
2022/09/15 07:46:17;;;;;;;25.20;17.02;;;16.40;99.90;;;;;;5014260;28;20030;-66
2022/09/15 07:48:47;;;;;;;29.38;15.38;;;16.70;99.90;;;;;;5013664;28;20026;-66
2022/09/15 07:51:14;;;;;;;24.45;15.43;;;16.60;99.90;;;;;;5014416;28;20049;-66
2022/09/15 07:53:41;;;;;;;25.35;16.65;;;16.90;99.90;;;;;;5014318;28;20072;-67
2022/09/15 07:56:07;;;;;;;26.15;14.63;;;17.10;99.90;;;;;;5014252;28;20033;-66
2022/09/15 07:58:33;;;;;;;30.00;15.57;;;16.50;99.90;;;;;;5012984;28;20033;-66
2022/09/15 08:01:10;;;;;;;23.15;13.52;;;16.80;99.90;;;;;;5014099;28;20022;-67
2022/09/15 08:03:40;;;;;;;26.95;14.65;;;16.40;99.90;;;;;;5012792;28;20081;-67
2022/09/15 08:06:06;;;;;;;21.73;13.68;;;16.50;99.90;;;;;;5014367;28;20458;-67
2022/09/15 08:08:32;;;;;;;23.38;13.35;;;17.00;99.90;;;;;;5013899;28;20493;-67
2022/09/15 08:10:57;;;;;;;22.27;14.70;;;17.40;99.90;;;;;;5014212;28;20021;-67
2022/09/15 08:13:23;;;;;;;24.95;13.68;;;17.70;99.90;;;;;;5013957;28;20108;-66
2022/09/15 08:15:49;;;;;;;21.45;11.93;;;17.80;99.90;;;;;;5013717;28;20038;-66
2022/09/15 08:18:16;;;;;;;20.55;12.75;;;17.40;99.90;;;;;;5013886;28;20058;-67
2022/09/15 08:20:42;;;;;;;14.38;10.90;;;17.30;99.90;;;;;;5012589;28;20026;-67
2022/09/15 08:23:10;;;;;;;28.67;11.63;;;17.60;99.90;;;;;;5013766;28;20030;-66
2022/09/15 08:25:37;;;;;;;27.95;11.55;;;18.00;99.90;;;;;;5013816;28;20033;-67
2022/09/15 08:28:03;;;;;;;18.15;11.55;;;18.20;99.90;;;;;;5012725;28;20034;-67
2022/09/15 08:30:29;;;;;;;18.67;11.13;;;18.50;99.90;;;;;;5013116;28;20406;-67
2022/09/15 08:32:55;;;;;;;19.60;10.52;;;18.20;99.90;;;;;;5013797;28;20534;-66
2022/09/15 08:35:22;;;;;;;18.85;7.90;;;17.80;99.90;;;;;;5013660;28;20072;-67
2022/09/15 08:37:48;;;;;;;20.33;8.15;;;17.50;99.90;;;;;;5013553;28;20030;-66
2022/09/15 08:40:25;;;;;;;23.90;9.63;;;18.00;99.90;;;;;;5012341;28;20112;-66
2022/09/15 08:42:55;;;;;;;17.55;8.60;;;18.20;99.90;;;;;;5013427;28;20030;-66
2022/09/15 08:45:36;;;;;;;15.18;7.55;;;18.20;99.90;;;;;;5013124;28;20048;-66
2022/09/15 08:48:03;;;;;;;16.88;8.32;;;18.40;99.90;;;;;;5012285;28;20467;-67
2022/09/15 08:50:41;;;;;;;18.25;7.75;;;18.80;99.90;;;;;;5013426;28;20096;-67
2022/09/15 08:53:19;;;;;;;20.20;6.93;;;19.50;99.90;;;;;;5013243;28;20121;-66
2022/09/15 08:55:49;;;;;;;18.40;6.50;;;19.80;99.90;;;;;;5013494;28;20091;-66
2022/09/15 08:58:21;;;;;;;12.05;5.80;;;19.90;99.90;;;;;;5013266;28;20021;-66
2022/09/15 09:01:10;;;;;;;11.90;5.72;;;19.20;99.90;;;;;;5013069;28;20021;-67
2022/09/15 09:03:42;;;;;;;16.52;5.45;;;18.60;99.90;;;;;;4976246;28;20096;-66
2022/09/15 09:06:23;;;;;;;10.43;5.43;;;18.30;99.90;;;;;;5013223;28;20116;-67
2022/09/15 09:09:10;;;;;;;13.00;6.88;;;18.70;99.90;;;;;;5013193;28;20072;-66
2022/09/15 09:12:00;;;;;;;17.67;6.78;;;19.20;99.90;;;;;;5011826;28;20041;-67
2022/09/15 09:14:39;;;;;;;17.50;5.88;;;18.90;99.90;;;;;;5000729;28;20475;-67
2022/09/15 09:17:37;;;;;;;18.50;6.45;;;19.30;99.90;;;;;;5013221;28;20034;-66
2022/09/15 09:20:40;;;;;;;14.48;5.50;;;19.50;99.90;;;;;;5012837;28;20038;-66
2022/09/15 09:23:14;;;;;;;17.00;4.68;;;18.50;99.90;;;;;;5002508;28;20022;-66
2022/09/15 09:25:42;;;;;;;13.93;3.30;;;18.30;99.90;;;;;;5012833;28;20481;-66
2022/09/15 09:28:38;;;;;;;8.98;2.75;;;18.40;99.90;;;;;;5013205;28;20386;-67
2022/09/15 09:31:09;;;;;;;8.27;2.55;;;18.60;99.90;;;;;;5011036;28;20133;-66
2022/09/15 09:33:48;;;;;;;13.63;3.28;;;18.60;99.90;;;;;;5013357;28;20038;-66
2022/09/15 09:36:15;;;;;;;10.43;2.80;;;18.40;99.90;;;;;;5012868;28;20040;-66
2022/09/15 09:38:45;;;;;;;9.82;2.33;;;18.90;99.90;;;;;;5012983;28;20029;-67
2022/09/15 09:41:17;;;;;;;11.13;2.60;;;18.70;99.90;;;;;;5012790;28;20033;-66
2022/09/15 09:43:45;;;;;;;;;;;18.90;99.90;;;;;;5012936;28;20375;-67
2022/09/15 09:46:15;;;;;;;11.48;1.73;;;19.00;99.90;;;;;;5012836;28;19912;-66
2022/09/15 09:48:53;;;;;;;8.10;2.15;;;18.90;99.90;;;;;;5012973;28;20037;-66
2022/09/15 09:51:30;;;;;;;5.95;1.38;;;18.90;99.90;;;;;;5012409;28;20111;-66
2022/09/15 09:54:03;;;;;;;8.20;1.40;;;19.10;99.90;;;;;;5012822;28;20121;-66
2022/09/15 09:56:29;;;;;;;7.20;1.67;;;19.50;99.90;;;;;;5012157;28;20379;-66
2022/09/15 09:58:55;;;;;;;6.45;2.13;;;20.10;99.90;;;;;;5011546;28;20026;-66
2022/09/15 10:01:24;;;;;;;8.82;1.70;;;19.90;99.90;;;;;;5012502;28;20029;-66
2022/09/15 10:04:11;;;;;;;6.38;1.67;;;19.50;99.90;;;;;;5012537;28;20053;-67
2022/09/15 10:06:38;;;;;;;7.78;1.58;;;19.20;99.90;;;;;;5012281;28;20041;-67
2022/09/15 10:09:22;;;;;;;7.32;1.73;;;19.40;99.90;;;;;;5012622;28;20030;-66
2022/09/15 10:11:51;;;;;;;11.75;1.95;;;18.70;99.90;;;;;;5013787;28;20034;-67
2022/09/15 10:14:21;;;;;;;11.98;2.22;;;18.60;99.90;;;;;;5016258;28;20041;-67
2022/09/15 10:17:09;;;;;;;17.65;1.70;;;18.20;99.90;;;;;;5016017;28;20037;-67
2022/09/15 10:19:45;;;;;;;8.25;2.35;;;17.90;99.90;;;;;;5004854;28;20134;-66
2022/09/15 10:22:36;;;;;;;12.98;1.98;;;17.60;99.90;;;;;;5016068;28;20057;-69
2022/09/15 10:25:19;;;;;;;6.03;1.70;;;17.60;99.90;;;;;;5016160;28;20474;-68
2022/09/15 10:28:17;;;;;;;11.98;2.40;;;17.50;99.90;;;;;;5015569;28;20025;-67
2022/09/15 10:31:14;;;;;;;8.52;2.10;;;17.30;99.90;;;;;;5015554;28;20088;-66
2022/09/15 10:33:44;;;;;;;6.57;1.80;;;17.00;99.90;;;;;;5014707;28;20099;-66
2022/09/15 10:36:30;;;;;;;5.75;1.92;;;16.80;99.90;;;;;;5015580;28;20108;-66
2022/09/15 10:39:11;;;;;;;6.90;1.90;;;16.70;99.90;;;;;;5015976;28;20108;-66
2022/09/15 10:41:47;;;;;;;11.88;3.72;;;17.00;99.90;;;;;;5003459;28;20022;-66
2022/09/15 10:44:36;;;;;;;9.52;2.45;;;17.10;99.90;;;;;;5015676;28;20532;-67
2022/09/15 10:47:23;;;;;;;11.80;3.28;;;17.20;99.90;;;;;;5014309;28;20029;-66
2022/09/15 10:50:14;;;;;;;10.75;2.92;;;17.10;99.90;;;;;;5015570;28;20038;-66
2022/09/15 10:53:09;;;;;;;14.00;3.05;;;17.40;99.90;;;;;;5015323;28;20080;-67
2022/09/15 10:56:14;;;;;;;13.45;2.50;;;17.50;99.90;;;;;;4979326;28;20573;-66
2022/09/15 10:58:59;;;;;;;10.32;2.20;;;17.20;99.90;;;;;;5006928;28;20173;-67
2022/09/15 11:01:33;;;;;;;15.13;3.33;;;17.40;99.90;;;;;;5015286;28;20044;-67
2022/09/15 11:04:28;;;;;;;7.05;1.73;;;17.70;99.90;;;;;;5015224;28;20033;-67
2022/09/15 11:07:30;;;;;;;7.68;1.85;;;18.20;99.90;;;;;;5015119;28;20037;-66
2022/09/15 11:10:01;;;;;;;8.35;1.85;;;18.10;99.90;;;;;;5015079;28;20471;-67
2022/09/15 11:12:58;;;;;;;10.93;2.72;;;18.60;99.90;;;;;;5014918;28;20084;-67
2022/09/15 11:15:49;;;;;;;11.80;2.10;;;18.70;99.90;;;;;;5014943;28;20037;-67
2022/09/15 11:18:53;;;;;;;7.38;2.03;;;18.30;99.90;;;;;;5015207;28;20044;-67
2022/09/15 11:21:36;;;;;;;13.20;2.63;;;18.60;99.90;;;;;;5014844;28;20030;-67
2022/09/15 11:24:16;;;;;;;8.07;2.05;;;18.80;99.90;;;;;;5013191;28;20088;-66
2022/09/15 11:26:45;;;;;;;8.95;2.50;;;18.60;99.90;;;;;;5013813;28;20156;-66
2022/09/15 11:29:41;;;;;;;9.02;1.92;;;19.10;99.90;;;;;;5014623;28;20083;-66
2022/09/15 11:32:14;;;;;;;10.25;2.30;;;19.50;99.90;;;;;;5014588;28;20088;-66
2022/09/15 11:34:58;;;;;;;7.70;2.10;;;19.70;99.90;;;;;;5013618;28;20125;-66
2022/09/15 11:37:47;;;;;;;12.40;2.40;;;19.70;99.90;;;;;;5014629;28;20502;-66
2022/09/15 11:40:25;;;;;;;9.73;2.15;;;20.20;99.90;;;;;;5014364;28;20034;-67
2022/09/15 11:43:10;;;;;;;3.17;1.58;;;20.20;99.90;;;;;;5014322;28;20033;-66
2022/09/15 11:45:42;;;;;;;11.77;1.98;;;20.20;99.90;;;;;;5014502;28;20433;-66
2022/09/15 11:48:32;;;;;;;9.07;1.13;;;19.90;99.90;;;;;;5013154;28;20042;-66
2022/09/15 11:51:00;;;;;;;5.65;1.30;;;19.50;99.90;;;;;;5014450;28;20038;-66
2022/09/15 11:53:32;;;;;;;5.10;1.23;;;19.90;99.90;;;;;;5012871;28;20034;-67
2022/09/15 11:56:26;;;;;;;5.95;1.30;;;20.30;99.90;;;;;;5014338;28;20045;-66
2022/09/15 11:59:16;;;;;;;6.70;1.40;;;20.80;99.90;;;;;;5013934;28;20030;-67
2022/09/15 12:01:58;;;;;;;9.15;1.65;;;22.40;99.90;;;;;;5014135;28;20482;-66
2022/09/15 12:05:02;;;;;;;7.93;1.85;;;23.40;99.90;;;;;;5014362;28;20037;-67
2022/09/15 12:07:31;;;;;;;6.78;1.13;;;22.70;99.90;;;;;;4961000;28;20049;-67
2022/09/15 12:10:20;;;;;;;9.63;1.40;;;22.60;99.90;;;;;;5007214;28;20379;-67
2022/09/15 12:12:47;;;;;;;3.85;1.50;;;23.80;99.90;;;;;;4998150;28;20044;-67
2022/09/15 12:15:16;;;;;;;3.97;1.08;;;24.10;99.90;;;;;;5008236;28;20394;-66
2022/09/15 12:18:09;;;;;;;12.38;1.90;;;24.50;99.50;;;;;;5014090;28;20025;-67
2022/09/15 12:20:58;;;;;;;10.18;1.20;;;24.10;98.20;;;;;;5013813;28;20033;-67
2022/09/15 12:23:32;;;;;;;7.03;1.38;;;23.80;98.60;;;;;;5013491;28;20029;-67
2022/09/15 12:26:04;;;;;;;12.18;1.55;;;23.90;98.10;;;;;;5013768;28;20034;-67
2022/09/15 12:28:53;;;;;;;10.65;1.77;;;24.10;99.10;;;;;;5013686;28;20108;-67
2022/09/15 12:31:22;;;;;;;6.65;1.50;;;24.50;98.20;;;;;;5000889;28;20044;-67
2022/09/15 12:33:59;;;;;;;5.47;1.15;;;24.10;97.40;;;;;;5013151;28;20034;-67
2022/09/15 12:36:37;;;;;;;7.85;1.27;;;24.80;95.40;;;;;;5000647;28;20113;-67
2022/09/15 12:39:21;;;;;;;5.72;1.58;;;25.30;95.10;;;;;;5013464;28;20360;-68
2022/09/15 12:41:50;;;;;;;8.90;1.40;;;24.40;95.70;;;;;;5013711;28;20026;-67
2022/09/15 12:44:24;;;;;;;5.72;1.35;;;24.30;96.50;;;;;;5013437;28;20026;-67
2022/09/15 12:46:53;;;;;;;7.22;1.67;;;25.30;95.90;;;;;;5012127;28;20501;-67
2022/09/15 12:49:22;;;;;;;8.95;1.40;;;24.40;95.80;;;;;;5013258;28;20037;-67
2022/09/15 12:51:49;;;;;;;5.72;1.83;;;23.20;97.40;;;;;;5013204;28;20026;-67
2022/09/15 12:54:27;;;;;;;7.72;1.65;;;22.40;98.10;;;;;;5013370;28;20085;-67
2022/09/15 12:56:55;;;;;;;12.15;1.70;;;22.30;98.70;;;;;;5000788;28;20471;-67
2022/09/15 12:59:26;;;;;;;8.48;1.67;;;22.00;99.40;;;;;;5013023;28;20092;-67
2022/09/15 13:01:54;;;;;;;9.15;1.42;;;21.90;99.90;;;;;;5013182;28;20026;-67
2022/09/15 13:04:42;;;;;;;10.77;1.42;;;21.30;99.90;;;;;;5013347;28;20034;-66